Time;durP1;ratioP1;P1;durP2;ratioP2;P2;SDS_P1;SDS_P2;PMS_P1;PMS_P2;Temp;Humidity;BMP_temperature;BMP_pressure;BME280_temperature;BME280_humidity;BME280_pressure;Samples;Min_cycle;Max_cycle;Signal;HPM_P1;HPM_P2
2022/04/06 00:00:06;;;;;;;1.43;0.80;;;;;;;;;;20969251;23;20233;-83
2022/04/06 00:10:09;;;;;;;1.23;0.80;;;;;;;;;;20946651;28;20243;-84
2022/04/06 00:20:11;;;;;;;1.20;0.77;;;;;;;;;;20962393;28;20224;-84
2022/04/06 00:30:13;;;;;;;1.53;1.00;;;;;;;;;;20980317;28;20267;-86
2022/04/06 00:40:16;;;;;;;1.57;0.90;;;;;;;;;;20962792;28;20229;-86
2022/04/06 00:50:42;;;;;;;1.63;1.00;;;;;;;;;;20982582;28;20859;-84
2022/04/06 01:00:44;;;;;;;1.50;0.93;;;;;;;;;;20884869;28;20267;-83
2022/04/06 01:10:46;;;;;;;1.53;0.80;;;;;;;;;;20875771;28;20569;-84
2022/04/06 01:20:48;;;;;;;2.33;1.30;;;;;;;;;;20893242;28;20229;-85
2022/04/06 01:30:49;;;;;;;2.03;1.00;;;;;;;;;;20975358;28;20282;-84
2022/04/06 01:40:52;;;;;;;2.67;1.00;;;;;;;;;;20941032;28;20229;-83
2022/04/06 02:01:15;;;;;;;2.30;1.23;;;;;;;;;;20956227;28;20705;-85
2022/04/06 02:11:17;;;;;;;0.83;0.60;;;;;;;;;;20941077;28;20262;-82
2022/04/06 02:21:22;;;;;;;1.47;0.73;;;;;;;;;;20953185;28;20229;-86
2022/04/06 02:31:24;;;;;;;1.00;0.60;;;;;;;;;;20937271;22;20774;-66
2022/04/06 02:41:25;;;;;;;1.27;0.90;;;;;;;;;;20901965;28;20226;-66
2022/04/06 02:51:27;;;;;;;2.60;1.10;;;;;;;;;;20858680;28;20225;-66
2022/04/06 03:01:29;;;;;;;1.80;1.20;;;9.70;99.90;;;;;;20850857;28;20226;-66
2022/04/06 03:11:31;;;;;;;1.67;0.87;;;;;;;;;;20850487;28;20256;-66
2022/04/06 03:21:33;;;;;;;1.80;0.90;;;;;;;;;;20865738;28;20222;-66
2022/04/06 03:31:34;;;;;;;2.20;0.97;;;;;;;;;;20825482;28;20279;-66
2022/04/06 03:41:36;;;;;;;1.30;0.80;;;;;;;;;;20791565;28;20222;-66
2022/04/06 03:51:38;;;;;;;1.33;0.80;;;9.80;99.90;;;;;;20783713;28;20210;-66
2022/04/06 04:01:40;;;;;;;1.40;0.80;;;;;;;;;;20845216;28;20213;-67
2022/04/06 04:11:42;;;;;;;1.60;1.00;;;;;;;;;;20846216;28;20239;-66
2022/04/06 04:21:44;;;;;;;1.37;0.80;;;;;;;;;;20861387;28;20242;-66
2022/04/06 04:31:47;;;;;;;1.63;0.97;;;;;;;;;;20860772;28;20221;-66
2022/04/06 04:52:41;;;;;;;1.47;1.00;;;;;;;;;;20788906;28;20223;-65
2022/04/06 05:02:44;;;;;;;2.47;1.37;;;;;;;;;;20809945;28;20233;-65
2022/04/06 05:12:48;;;;;;;1.83;1.20;;;;;;;;;;20848528;28;20210;-66
2022/04/06 05:22:51;;;;;;;1.37;0.93;;;;;;;;;;20869043;28;20233;-66
2022/04/06 05:32:54;;;;;;;1.47;0.93;;;;;;;;;;20836098;28;20630;-65
2022/04/06 05:42:56;;;;;;;1.20;0.90;;;;;;;;;;20869241;28;20214;-65
2022/04/06 05:52:58;;;;;;;1.60;1.00;;;;;;;;;;20831164;28;20205;-65
2022/04/06 06:03:00;;;;;;;1.23;0.93;;;;;;;;;;20862403;22;20226;-65
2022/04/06 06:13:02;;;;;;;1.10;0.80;;;;;;;;;;20789060;28;20210;-65
2022/04/06 06:23:03;;;;;;;2.50;1.30;;;;;;;;;;20790659;28;20226;-65
2022/04/06 06:33:05;;;;;;;1.80;1.10;;;;;;;;;;20798370;28;20256;-65
2022/04/06 06:43:08;;;;;;;4.10;1.87;;;;;;;;;;20766593;28;20215;-65
2022/04/06 06:53:09;;;;;;;3.53;1.40;;;;;;;;;;20704977;28;20314;-65
2022/04/06 07:03:11;;;;;;;1.47;0.77;;;;;;;;;;20719695;28;20274;-65
2022/04/06 07:13:16;;;;;;;1.73;0.93;;;11.30;99.90;;;;;;20764191;28;20230;-65
2022/04/06 07:23:18;;;;;;;1.83;0.70;;;;;;;;;;20766737;28;20308;-65
2022/04/06 07:33:20;;;;;;;3.93;0.50;;;;;;;;;;20763112;28;20556;-65
2022/04/06 07:43:22;;;;;;;1.07;0.73;;;;;;;;;;20809454;28;20348;-65
2022/04/06 07:53:24;;;;;;;0.63;0.50;;;;;;;;;;20767994;28;20231;-65
2022/04/06 08:03:25;;;;;;;1.40;0.80;;;;;;;;;;20744467;28;20356;-65
2022/04/06 08:13:27;;;;;;;1.43;0.70;;;;;;;;;;20776370;28;20214;-65
2022/04/06 08:23:30;;;;;;;1.07;0.73;;;;;;;;;;20801750;28;20226;-65
2022/04/06 08:33:31;;;;;;;1.87;1.00;;;;;;;;;;20774136;28;20219;-65
2022/04/06 08:43:33;;;;;;;1.60;0.73;;;;;;;;;;20791512;28;20732;-65
2022/04/06 08:53:39;;;;;;;1.30;0.70;;;11.80;99.90;;;;;;20794756;28;20244;-65
2022/04/06 09:03:42;;;;;;;4.23;0.90;;;;;;;;;;20793278;28;20301;-65
2022/04/06 09:13:46;;;;;;;1.00;0.43;;;13.70;99.90;;;;;;20766228;28;20219;-65
2022/04/06 09:23:48;;;;;;;0.77;0.50;;;13.30;99.90;;;;;;20741802;28;20260;-65
2022/04/06 09:33:58;;;;;;;2.10;0.67;;;;;;;;;;20776372;28;20218;-65
2022/04/06 09:44:08;;;;;;;1.50;0.87;;;;;;;;;;20771464;28;20229;-65
2022/04/06 09:54:14;;;;;;;1.63;0.83;;;;;;;;;;20786649;28;20221;-65
2022/04/06 10:04:21;;;;;;;1.53;0.73;;;;;;;;;;20775659;28;20218;-66
2022/04/06 10:14:24;;;;;;;0.83;0.70;;;14.30;99.90;;;;;;20809172;28;20207;-65
2022/04/06 10:25:03;;;;;;;0.60;0.60;;;14.10;99.90;;;;;;20756506;28;20226;-65
2022/04/06 10:35:24;;;;;;;1.03;0.60;;;;;;;;;;20797459;28;20232;-65
2022/04/06 10:45:29;;;;;;;1.20;0.90;;;;;;;;;;20780695;28;20656;-65
2022/04/06 10:55:31;;;;;;;2.63;0.97;;;;;;;;;;20796691;28;20202;-66
2022/04/06 11:05:48;;;;;;;2.07;0.97;;;13.30;99.90;;;;;;20789670;28;20581;-65
2022/04/06 11:15:51;;;;;;;2.73;1.10;;;;;;;;;;20807432;28;20356;-65
2022/04/06 11:25:54;;;;;;;9.70;5.53;;;;;;;;;;20797736;28;20214;-65
2022/04/06 11:35:56;;;;;;;2.33;1.20;;;;;;;;;;20817660;28;20219;-65
2022/04/06 11:45:58;;;;;;;0.60;0.60;;;;;;;;;;20774443;28;20287;-65
2022/04/06 11:56:01;;;;;;;1.20;0.80;;;;;;;;;;20799426;28;20261;-65
2022/04/06 12:06:04;;;;;;;0.70;0.40;;;;;;;;;;20853226;22;20254;-69
2022/04/06 12:16:06;;;;;;;2.63;1.00;;;15.30;99.90;;;;;;20886564;28;20209;-69
2022/04/06 12:26:09;;;;;;;1.17;0.60;;;13.90;99.90;;;;;;20905616;28;20625;-69
2022/04/06 12:36:19;;;;;;;1.07;0.70;;;13.90;99.90;;;;;;20907615;28;20210;-69
2022/04/06 12:46:40;;;;;;;1.43;0.97;;;14.10;99.90;;;;;;20882972;28;20574;-70
2022/04/06 12:57:00;;;;;;;0.50;0.40;;;;;;;;;;20881067;28;20255;-70
2022/04/06 13:07:02;;;;;;;0.87;0.50;;;;;;;;;;20904406;28;20641;-70
2022/04/06 13:17:05;;;;;;;1.00;0.60;;;;;;;;;;20887289;28;20209;-70
2022/04/06 13:27:07;;;;;;;1.20;0.77;;;14.30;99.90;;;;;;20968314;28;20244;-69
2022/04/06 13:37:09;;;;;;;0.60;0.40;;;;;;;;;;20978295;28;20221;-68
2022/04/06 13:47:11;;;;;;;0.63;0.40;;;;;;;;;;20960921;28;20480;-68
2022/04/06 13:57:13;;;;;;;1.00;0.70;;;;;;;;;;20980521;28;20260;-68
2022/04/06 14:07:15;;;;;;;0.37;0.37;;;;;;;;;;20958686;28;20259;-68
2022/04/06 14:17:17;;;;;;;0.87;0.40;;;;;;;;;;20972964;28;20263;-68
2022/04/06 14:27:18;;;;;;;0.67;0.50;;;;;;;;;;20982762;28;20252;-68
2022/04/06 14:37:20;;;;;;;0.20;0.20;;;;;;;;;;20986766;28;20209;-68
2022/04/06 14:47:24;;;;;;;0.30;0.30;;;;;;;;;;20991063;28;20225;-68
2022/04/06 14:57:25;;;;;;;1.03;0.30;;;;;;;;;;20978180;28;20537;-68
2022/04/06 15:07:28;;;;;;;0.33;0.33;;;;;;;;;;20996987;28;20267;-68
2022/04/06 15:17:31;;;;;;;0.73;0.43;;;;;;;;;;20975972;28;20225;-69
2022/04/06 15:27:32;;;;;;;1.87;0.50;;;15.60;99.90;;;;;;20990586;28;20279;-69
2022/04/06 15:37:35;;;;;;;0.67;0.40;;;;;;;;;;20990360;28;20221;-69
2022/04/06 15:47:37;;;;;;;1.27;0.70;;;;;;;;;;20995164;28;20209;-69
2022/04/06 15:57:39;;;;;;;0.77;0.50;;;;;;;;;;20943074;28;20213;-69
2022/04/06 16:07:41;;;;;;;1.50;0.63;;;;;;;;;;20954783;28;20370;-70
2022/04/06 16:17:43;;;;;;;0.60;0.50;;;;;;;;;;20982336;28;20213;-69
2022/04/06 16:27:45;;;;;;;0.57;0.50;;;;;;;;;;20977312;28;20271;-69
2022/04/06 16:37:48;;;;;;;0.93;0.57;;;;;;;;;;20986112;28;20217;-69
2022/04/06 16:47:50;;;;;;;0.60;0.40;;;;;;;;;;20973801;28;20293;-69
2022/04/06 16:57:52;;;;;;;0.80;0.47;;;;;;;;;;20970205;28;20218;-70
2022/04/06 17:07:53;;;;;;;0.63;0.40;;;;;;;;;;20851481;28;20810;-69
2022/04/06 17:17:56;;;;;;;0.93;0.53;;;;;;;;;;20869802;28;20202;-69
2022/04/06 17:27:57;;;;;;;0.63;0.30;;;;;;;;;;20913166;28;20202;-69
2022/04/06 17:37:59;;;;;;;0.37;0.37;;;;;;;;;;20947707;28;20206;-70
2022/04/06 17:48:08;;;;;;;2.57;0.50;;;;;;;;;;20971695;28;20217;-70
2022/04/06 17:58:10;;;;;;;1.83;0.60;;;;;;;;;;20973383;28;20480;-70
2022/04/06 18:08:12;;;;;;;0.70;0.40;;;;;;;;;;20954457;22;20253;-65
2022/04/06 18:18:14;;;;;;;0.57;0.30;;;;;;;;;;20873827;28;20270;-65
2022/04/06 18:28:15;;;;;;;0.50;0.30;;;;;;;;;;20932543;28;20216;-66
2022/04/06 18:38:18;;;;;;;0.60;0.43;;;;;;;;;;21017665;28;20727;-66
2022/04/06 18:48:20;;;;;;;0.67;0.50;;;;;;;;;;21010733;28;20220;-65
2022/04/06 18:58:24;;;;;;;0.80;0.57;;;13.40;99.90;;;;;;21018671;28;20225;-65
2022/04/06 19:08:27;;;;;;;1.10;0.60;;;;;;;;;;20936711;28;20233;-66
2022/04/06 19:18:29;;;;;;;0.60;0.50;;;;;;;;;;20925231;28;20262;-65
2022/04/06 19:28:32;;;;;;;0.50;0.50;;;;;;;;;;20937258;28;21044;-65
2022/04/06 19:38:34;;;;;;;0.83;0.60;;;;;;;;;;20922396;28;20239;-65
2022/04/06 19:48:36;;;;;;;0.70;0.40;;;;;;;;;;20950046;28;20209;-65
2022/04/06 19:58:38;;;;;;;1.50;0.37;;;;;;;;;;20931328;28;20240;-65
2022/04/06 20:08:39;;;;;;;0.30;0.30;;;;;;;;;;20930447;28;20290;-65
2022/04/06 20:18:43;;;;;;;1.27;0.60;;;;;;;;;;20945698;28;20279;-66
2022/04/06 20:28:45;;;;;;;0.40;0.30;;;;;;;;;;20948523;28;20232;-65
2022/04/06 20:38:46;;;;;;;1.00;0.80;;;;;;;;;;20931680;28;20279;-66
2022/04/06 20:48:50;;;;;;;0.87;0.40;;;12.90;99.90;;;;;;20946935;28;20252;-65
2022/04/06 20:58:52;;;;;;;1.57;0.60;;;;;;;;;;20930152;28;20243;-65
2022/04/06 21:08:54;;;;;;;0.33;0.27;;;;;;;;;;20939536;28;20228;-65
2022/04/06 21:18:57;;;;;;;0.80;0.50;;;;;;;;;;20954562;28;20221;-65
2022/04/06 21:28:58;;;;;;;0.93;0.30;;;;;;;;;;20970058;28;20294;-65
2022/04/06 21:39:01;;;;;;;0.43;0.40;;;;;;;;;;20962056;28;20221;-66
2022/04/06 21:49:03;;;;;;;1.23;0.60;;;;;;;;;;21021498;28;20224;-66
2022/04/06 21:59:05;;;;;;;0.90;0.37;;;;;;;;;;21037178;28;20274;-65
2022/04/06 22:09:07;;;;;;;0.33;0.20;;;;;;;;;;21020631;28;20213;-65
2022/04/06 22:19:09;;;;;;;0.73;0.40;;;;;;;;;;21037166;28;20272;-65
2022/04/06 22:29:14;;;;;;;0.57;0.40;;;;;;;;;;21019276;28;20220;-65
2022/04/06 22:39:16;;;;;;;0.57;0.47;;;;;;;;;;21041210;28;20200;-66
2022/04/06 22:49:18;;;;;;;0.73;0.40;;;;;;;;;;21035099;28;20201;-65
2022/04/06 22:59:22;;;;;;;0.30;0.30;;;;;;;;;;21033769;28;20192;-65
2022/04/06 23:09:24;;;;;;;0.20;0.20;;;;;;;;;;21033863;28;20217;-65
2022/04/06 23:19:26;;;;;;;0.23;0.20;;;;;;;;;;20952220;28;20231;-66
2022/04/06 23:29:28;;;;;;;0.10;0.10;;;;;;;;;;20948048;28;20230;-65
2022/04/06 23:39:30;;;;;;;2.27;0.23;;;;;;;;;;20947443;28;20201;-65
2022/04/06 23:49:31;;;;;;;0.20;0.20;;;;;;;;;;20962652;28;20279;-66
2022/04/06 23:59:33;;;;;;;1.40;0.40;;;;;;;;;;20945954;28;20290;-66
